sensor_id;sensor_type;location;lat;lon;timestamp;pressure;altitude;pressure_sealevel;temperature;humidity
13690;BME280;6917;52.194;9.894;2023-07-13T00:00:22;100282.75;;;18.02;87.67
13690;BME280;6917;52.194;9.894;2023-07-13T00:02:47;100280.94;;;18.10;87.36
13690;BME280;6917;52.194;9.894;2023-07-13T00:05:13;100282.00;;;18.05;87.47
13690;BME280;6917;52.194;9.894;2023-07-13T00:07:38;100290.03;;;18.10;86.69
13690;BME280;6917;52.194;9.894;2023-07-13T00:10:04;100303.16;;;18.17;86.51
13690;BME280;6917;52.194;9.894;2023-07-13T00:12:33;100304.81;;;18.22;86.12
13690;BME280;6917;52.194;9.894;2023-07-13T00:15:00;100295.81;;;18.25;85.67
13690;BME280;6917;52.194;9.894;2023-07-13T00:17:27;100308.13;;;18.27;85.45
13690;BME280;6917;52.194;9.894;2023-07-13T00:19:53;100308.91;;;18.28;85.43
13690;BME280;6917;52.194;9.894;2023-07-13T00:22:20;100309.72;;;18.28;84.81
13690;BME280;6917;52.194;9.894;2023-07-13T00:24:46;100318.59;;;18.37;83.46
13690;BME280;6917;52.194;9.894;2023-07-13T00:27:12;100306.91;;;18.48;83.00
13690;BME280;6917;52.194;9.894;2023-07-13T00:29:37;100299.38;;;18.48;82.78
13690;BME280;6917;52.194;9.894;2023-07-13T00:32:04;100312.47;;;18.51;82.56
13690;BME280;6917;52.194;9.894;2023-07-13T00:34:30;100302.97;;;18.49;82.05
13690;BME280;6917;52.194;9.894;2023-07-13T00:36:55;100293.13;;;18.51;81.83
13690;BME280;6917;52.194;9.894;2023-07-13T00:39:21;100295.59;;;18.56;81.74
13690;BME280;6917;52.194;9.894;2023-07-13T00:41:46;100306.09;;;18.66;81.54
13690;BME280;6917;52.194;9.894;2023-07-13T00:44:16;100302.16;;;18.67;81.75
13690;BME280;6917;52.194;9.894;2023-07-13T00:46:42;100299.31;;;18.64;81.71
13690;BME280;6917;52.194;9.894;2023-07-13T00:49:11;100304.63;;;18.53;81.46
13690;BME280;6917;52.194;9.894;2023-07-13T00:51:43;100308.91;;;18.51;81.75
13690;BME280;6917;52.194;9.894;2023-07-13T00:54:15;100300.13;;;18.45;81.53
13690;BME280;6917;52.194;9.894;2023-07-13T00:56:43;100297.31;;;18.41;81.16
13690;BME280;6917;52.194;9.894;2023-07-13T00:59:10;100291.03;;;18.44;80.89
13690;BME280;6917;52.194;9.894;2023-07-13T01:01:37;100293.00;;;18.44;80.97
13690;BME280;6917;52.194;9.894;2023-07-13T01:04:04;100288.97;;;18.38;79.98
13690;BME280;6917;52.194;9.894;2023-07-13T01:06:36;100280.66;;;18.38;79.24
13690;BME280;6917;52.194;9.894;2023-07-13T01:09:02;100281.13;;;18.43;78.87
13690;BME280;6917;52.194;9.894;2023-07-13T01:11:28;100283.53;;;18.45;78.98
13690;BME280;6917;52.194;9.894;2023-07-13T01:13:53;100288.59;;;18.39;78.77
13690;BME280;6917;52.194;9.894;2023-07-13T01:16:26;100292.84;;;18.37;78.88
13690;BME280;6917;52.194;9.894;2023-07-13T01:18:52;100286.41;;;18.29;79.04
13690;BME280;6917;52.194;9.894;2023-07-13T01:21:17;100284.25;;;18.19;78.79
13690;BME280;6917;52.194;9.894;2023-07-13T01:23:44;100282.97;;;18.13;78.80
13690;BME280;6917;52.194;9.894;2023-07-13T01:26:09;100288.06;;;18.11;78.55
13690;BME280;6917;52.194;9.894;2023-07-13T01:28:35;100282.81;;;18.06;78.87
13690;BME280;6917;52.194;9.894;2023-07-13T01:31:02;100291.41;;;18.01;78.94
13690;BME280;6917;52.194;9.894;2023-07-13T01:33:27;100297.59;;;17.94;79.49
13690;BME280;6917;52.194;9.894;2023-07-13T01:35:53;100288.84;;;17.92;79.25
13690;BME280;6917;52.194;9.894;2023-07-13T01:38:21;100292.88;;;17.95;78.84
13690;BME280;6917;52.194;9.894;2023-07-13T01:40:47;100293.22;;;17.93;78.39
13690;BME280;6917;52.194;9.894;2023-07-13T01:43:12;100296.34;;;17.92;77.96
13690;BME280;6917;52.194;9.894;2023-07-13T01:45:38;100299.47;;;17.90;77.94
13690;BME280;6917;52.194;9.894;2023-07-13T01:48:03;100293.16;;;17.90;77.70
13690;BME280;6917;52.194;9.894;2023-07-13T01:50:31;100291.97;;;17.91;77.36
13690;BME280;6917;52.194;9.894;2023-07-13T01:52:56;100293.88;;;17.87;76.77
13690;BME280;6917;52.194;9.894;2023-07-13T01:55:22;100296.34;;;17.92;76.50
13690;BME280;6917;52.194;9.894;2023-07-13T01:57:48;100298.75;;;17.93;76.27
13690;BME280;6917;52.194;9.894;2023-07-13T02:00:14;100301.00;;;17.88;76.58
13690;BME280;6917;52.194;9.894;2023-07-13T02:02:40;100301.22;;;17.79;76.72
13690;BME280;6917;52.194;9.894;2023-07-13T02:05:06;100300.41;;;17.78;76.76
13690;BME280;6917;52.194;9.894;2023-07-13T02:07:31;100291.63;;;17.73;76.75
13690;BME280;6917;52.194;9.894;2023-07-13T02:09:57;100311.13;;;17.80;76.43
13690;BME280;6917;52.194;9.894;2023-07-13T02:12:22;100304.44;;;17.81;76.56
13690;BME280;6917;52.194;9.894;2023-07-13T02:14:48;100297.97;;;17.73;76.77
13690;BME280;6917;52.194;9.894;2023-07-13T02:17:13;100303.19;;;17.78;76.85
13690;BME280;6917;52.194;9.894;2023-07-13T02:19:38;100311.13;;;17.80;76.35
13690;BME280;6917;52.194;9.894;2023-07-13T02:22:04;100316.94;;;17.75;77.08
13690;BME280;6917;52.194;9.894;2023-07-13T02:24:29;100310.97;;;17.73;77.01
13690;BME280;6917;52.194;9.894;2023-07-13T02:26:54;100318.84;;;17.71;77.13
13690;BME280;6917;52.194;9.894;2023-07-13T02:29:20;100321.59;;;17.71;77.40
13690;BME280;6917;52.194;9.894;2023-07-13T02:31:45;100318.63;;;17.64;77.31
13690;BME280;6917;52.194;9.894;2023-07-13T02:34:10;100322.19;;;17.64;77.52
13690;BME280;6917;52.194;9.894;2023-07-13T02:36:36;100313.41;;;17.59;77.53
13690;BME280;6917;52.194;9.894;2023-07-13T02:39:03;100310.63;;;17.59;77.64
13690;BME280;6917;52.194;9.894;2023-07-13T02:41:30;100311.72;;;17.54;77.47
13690;BME280;6917;52.194;9.894;2023-07-13T02:43:55;100314.44;;;17.50;77.45
13690;BME280;6917;52.194;9.894;2023-07-13T02:46:28;100299.78;;;17.50;77.43
13690;BME280;6917;52.194;9.894;2023-07-13T02:48:54;100308.44;;;17.48;77.38
13690;BME280;6917;52.194;9.894;2023-07-13T02:51:19;100312.00;;;17.49;77.42
13690;BME280;6917;52.194;9.894;2023-07-13T02:53:44;100317.09;;;17.47;77.58
13690;BME280;6917;52.194;9.894;2023-07-13T02:56:09;100318.19;;;17.42;77.95
13690;BME280;6917;52.194;9.894;2023-07-13T02:58:35;100322.91;;;17.42;77.74
13690;BME280;6917;52.194;9.894;2023-07-13T03:01:06;100316.13;;;17.39;77.79
13690;BME280;6917;52.194;9.894;2023-07-13T03:03:32;100316.75;;;17.33;78.27
13690;BME280;6917;52.194;9.894;2023-07-13T03:05:59;100319.44;;;17.29;78.43
13690;BME280;6917;52.194;9.894;2023-07-13T03:08:25;100327.13;;;17.20;78.98
13690;BME280;6917;52.194;9.894;2023-07-13T03:11:02;100334.88;;;17.14;79.59
13690;BME280;6917;52.194;9.894;2023-07-13T03:13:27;100320.22;;;17.10;79.31
13690;BME280;6917;52.194;9.894;2023-07-13T03:15:53;100321.81;;;17.11;79.75
13690;BME280;6917;52.194;9.894;2023-07-13T03:18:18;100319.28;;;17.06;79.97
13690;BME280;6917;52.194;9.894;2023-07-13T03:20:43;100318.25;;;16.95;80.47
13690;BME280;6917;52.194;9.894;2023-07-13T03:23:09;100322.88;;;16.91;80.52
13690;BME280;6917;52.194;9.894;2023-07-13T03:25:34;100329.47;;;16.86;81.12
13690;BME280;6917;52.194;9.894;2023-07-13T03:27:59;100329.41;;;16.83;81.13
13690;BME280;6917;52.194;9.894;2023-07-13T03:30:25;100334.56;;;16.84;81.52
13690;BME280;6917;52.194;9.894;2023-07-13T03:32:50;100333.75;;;16.84;81.43
13690;BME280;6917;52.194;9.894;2023-07-13T03:35:15;100338.84;;;16.82;81.40
13690;BME280;6917;52.194;9.894;2023-07-13T03:37:41;100333.22;;;16.78;81.88
13690;BME280;6917;52.194;9.894;2023-07-13T03:40:08;100345.31;;;16.74;82.05
13690;BME280;6917;52.194;9.894;2023-07-13T03:42:34;100339.44;;;16.75;81.72
13690;BME280;6917;52.194;9.894;2023-07-13T03:44:59;100341.59;;;16.82;81.72
13690;BME280;6917;52.194;9.894;2023-07-13T03:47:25;100343.78;;;16.76;81.85
13690;BME280;6917;52.194;9.894;2023-07-13T03:49:50;100348.44;;;16.72;81.84
13690;BME280;6917;52.194;9.894;2023-07-13T03:52:15;100349.22;;;16.73;81.96
13690;BME280;6917;52.194;9.894;2023-07-13T03:54:41;100347.34;;;16.77;81.55
13690;BME280;6917;52.194;9.894;2023-07-13T03:57:06;100351.09;;;16.84;81.53
13690;BME280;6917;52.194;9.894;2023-07-13T03:59:31;100343.78;;;16.92;80.60
13690;BME280;6917;52.194;9.894;2023-07-13T04:01:57;100340.59;;;16.90;80.54
13690;BME280;6917;52.194;9.894;2023-07-13T04:04:22;100341.50;;;16.94;80.40
13690;BME280;6917;52.194;9.894;2023-07-13T04:06:47;100334.63;;;16.88;80.59
13690;BME280;6917;52.194;9.894;2023-07-13T04:09:12;100333.03;;;16.87;80.41
13690;BME280;6917;52.194;9.894;2023-07-13T04:11:38;100340.16;;;16.88;80.78
13690;BME280;6917;52.194;9.894;2023-07-13T04:14:04;100344.63;;;16.92;80.22
13690;BME280;6917;52.194;9.894;2023-07-13T04:16:29;100350.66;;;16.98;80.44
13690;BME280;6917;52.194;9.894;2023-07-13T04:18:55;100347.91;;;16.98;80.31
13690;BME280;6917;52.194;9.894;2023-07-13T04:21:25;100345.50;;;16.97;80.66
13690;BME280;6917;52.194;9.894;2023-07-13T04:23:51;100343.47;;;16.93;80.06
13690;BME280;6917;52.194;9.894;2023-07-13T04:26:16;100355.53;;;17.05;79.76
13690;BME280;6917;52.194;9.894;2023-07-13T04:28:41;100349.16;;;17.01;80.10
13690;BME280;6917;52.194;9.894;2023-07-13T04:31:07;100356.34;;;17.05;79.97
13690;BME280;6917;52.194;9.894;2023-07-13T04:33:32;100350.13;;;17.08;79.85
13690;BME280;6917;52.194;9.894;2023-07-13T04:35:58;100360.47;;;17.11;79.75
13690;BME280;6917;52.194;9.894;2023-07-13T04:38:26;100366.56;;;17.20;79.81
13690;BME280;6917;52.194;9.894;2023-07-13T04:40:55;100370.31;;;17.28;79.94
13690;BME280;6917;52.194;9.894;2023-07-13T04:43:21;100358.41;;;17.24;79.38
13690;BME280;6917;52.194;9.894;2023-07-13T04:45:47;100357.97;;;17.22;79.46
13690;BME280;6917;52.194;9.894;2023-07-13T04:48:12;100380.72;;;17.35;78.98
13690;BME280;6917;52.194;9.894;2023-07-13T04:50:37;100371.63;;;17.34;79.18
13690;BME280;6917;52.194;9.894;2023-07-13T04:53:03;100376.09;;;17.39;79.10
13690;BME280;6917;52.194;9.894;2023-07-13T04:55:29;100370.94;;;17.37;78.68
13690;BME280;6917;52.194;9.894;2023-07-13T04:57:56;100379.47;;;17.48;78.70
13690;BME280;6917;52.194;9.894;2023-07-13T05:00:21;100379.63;;;17.55;78.67
13690;BME280;6917;52.194;9.894;2023-07-13T05:02:46;100378.53;;;17.60;78.44
13690;BME280;6917;52.194;9.894;2023-07-13T05:05:12;100378.19;;;17.61;78.53
13690;BME280;6917;52.194;9.894;2023-07-13T05:07:37;100385.75;;;17.64;78.43
13690;BME280;6917;52.194;9.894;2023-07-13T05:10:03;100396.19;;;17.71;78.79
13690;BME280;6917;52.194;9.894;2023-07-13T05:12:29;100391.19;;;17.61;78.81
13690;BME280;6917;52.194;9.894;2023-07-13T05:14:55;100393.59;;;17.62;78.89
13690;BME280;6917;52.194;9.894;2023-07-13T05:19:50;100412.75;;;17.87;79.19
13690;BME280;6917;52.194;9.894;2023-07-13T05:22:15;100411.88;;;17.82;78.96
13690;BME280;6917;52.194;9.894;2023-07-13T05:24:40;100416.31;;;17.87;79.12
13690;BME280;6917;52.194;9.894;2023-07-13T05:27:06;100420.19;;;18.02;78.59
13690;BME280;6917;52.194;9.894;2023-07-13T05:29:31;100415.75;;;17.97;78.67
13690;BME280;6917;52.194;9.894;2023-07-13T05:31:56;100420.25;;;18.05;78.41
13690;BME280;6917;52.194;9.894;2023-07-13T05:34:22;100433.81;;;18.10;78.72
13690;BME280;6917;52.194;9.894;2023-07-13T05:36:48;100429.78;;;18.08;78.86
13690;BME280;6917;52.194;9.894;2023-07-13T05:39:14;100426.22;;;18.07;78.37
13690;BME280;6917;52.194;9.894;2023-07-13T05:41:39;100440.56;;;18.13;78.61
13690;BME280;6917;52.194;9.894;2023-07-13T05:44:04;100445.19;;;18.25;79.27
13690;BME280;6917;52.194;9.894;2023-07-13T05:46:30;100446.97;;;18.36;78.57
13690;BME280;6917;52.194;9.894;2023-07-13T05:48:56;100431.28;;;18.40;77.56
13690;BME280;6917;52.194;9.894;2023-07-13T05:51:21;100434.31;;;18.55;76.87
13690;BME280;6917;52.194;9.894;2023-07-13T05:53:46;100453.69;;;18.74;77.45
13690;BME280;6917;52.194;9.894;2023-07-13T05:56:12;100450.72;;;18.83;76.48
13690;BME280;6917;52.194;9.894;2023-07-13T05:58:38;100445.53;;;18.81;75.29
13690;BME280;6917;52.194;9.894;2023-07-13T06:01:05;100450.03;;;18.89;75.44
13690;BME280;6917;52.194;9.894;2023-07-13T06:03:32;100438.69;;;18.75;75.16
13690;BME280;6917;52.194;9.894;2023-07-13T06:05:57;100435.50;;;18.73;75.38
13690;BME280;6917;52.194;9.894;2023-07-13T06:08:25;100456.94;;;18.80;75.41
13690;BME280;6917;52.194;9.894;2023-07-13T06:10:50;100452.31;;;18.84;74.83
13690;BME280;6917;52.194;9.894;2023-07-13T06:13:15;100441.66;;;18.86;74.46
13690;BME280;6917;52.194;9.894;2023-07-13T06:15:41;100440.00;;;18.81;74.78
13690;BME280;6917;52.194;9.894;2023-07-13T06:18:06;100438.31;;;18.77;74.90
13690;BME280;6917;52.194;9.894;2023-07-13T06:20:34;100446.25;;;18.78;75.01
13690;BME280;6917;52.194;9.894;2023-07-13T06:23:00;100444.81;;;18.84;73.41
13690;BME280;6917;52.194;9.894;2023-07-13T06:25:26;100431.06;;;18.68;72.79
13690;BME280;6917;52.194;9.894;2023-07-13T06:27:52;100436.66;;;18.72;73.11
13690;BME280;6917;52.194;9.894;2023-07-13T06:30:17;100419.19;;;18.68;71.44
13690;BME280;6917;52.194;9.894;2023-07-13T06:32:42;100420.78;;;18.69;71.15
13690;BME280;6917;52.194;9.894;2023-07-13T06:35:08;100412.63;;;18.57;71.18
13690;BME280;6917;52.194;9.894;2023-07-13T06:37:33;100410.59;;;18.54;71.36
13690;BME280;6917;52.194;9.894;2023-07-13T06:39:58;100413.34;;;18.54;71.21
13690;BME280;6917;52.194;9.894;2023-07-13T06:42:23;100410.44;;;18.47;70.87
13690;BME280;6917;52.194;9.894;2023-07-13T06:44:49;100420.75;;;18.50;71.64
13690;BME280;6917;52.194;9.894;2023-07-13T06:47:14;100415.22;;;18.50;71.63
13690;BME280;6917;52.194;9.894;2023-07-13T06:49:39;100412.69;;;18.41;71.23
13690;BME280;6917;52.194;9.894;2023-07-13T06:52:05;100419.19;;;18.29;71.50
13690;BME280;6917;52.194;9.894;2023-07-13T06:54:31;100405.91;;;18.19;71.11
13690;BME280;6917;52.194;9.894;2023-07-13T06:56:56;100424.66;;;18.26;72.03
13690;BME280;6917;52.194;9.894;2023-07-13T06:59:21;100430.47;;;18.40;72.20
13690;BME280;6917;52.194;9.894;2023-07-13T07:01:46;100431.75;;;18.46;71.84
13690;BME280;6917;52.194;9.894;2023-07-13T07:04:12;100435.28;;;18.43;72.04
13690;BME280;6917;52.194;9.894;2023-07-13T07:06:37;100440.94;;;18.50;72.70
13690;BME280;6917;52.194;9.894;2023-07-13T07:09:03;100434.03;;;18.40;71.82
13690;BME280;6917;52.194;9.894;2023-07-13T07:11:28;100420.19;;;18.40;71.53
13690;BME280;6917;52.194;9.894;2023-07-13T07:13:54;100428.50;;;18.40;71.65
13690;BME280;6917;52.194;9.894;2023-07-13T07:16:20;100433.72;;;18.46;71.89
13690;BME280;6917;52.194;9.894;2023-07-13T07:18:46;100438.53;;;18.49;71.59
13690;BME280;6917;52.194;9.894;2023-07-13T07:21:12;100430.31;;;18.33;71.10
13690;BME280;6917;52.194;9.894;2023-07-13T07:23:38;100420.28;;;18.44;71.58
13690;BME280;6917;52.194;9.894;2023-07-13T07:26:04;100424.13;;;18.39;70.67
13690;BME280;6917;52.194;9.894;2023-07-13T07:28:29;100425.00;;;18.43;70.90
13690;BME280;6917;52.194;9.894;2023-07-13T07:30:56;100431.91;;;18.53;70.72
13690;BME280;6917;52.194;9.894;2023-07-13T07:33:22;100428.06;;;18.58;70.50
13690;BME280;6917;52.194;9.894;2023-07-13T07:35:48;100422.81;;;18.53;70.17
13690;BME280;6917;52.194;9.894;2023-07-13T07:38:13;100424.47;;;18.57;70.58
13690;BME280;6917;52.194;9.894;2023-07-13T07:40:40;100430.81;;;18.58;70.44
13690;BME280;6917;52.194;9.894;2023-07-13T07:43:06;100425.59;;;18.53;69.87
13690;BME280;6917;52.194;9.894;2023-07-13T07:45:32;100421.97;;;18.68;69.23
13690;BME280;6917;52.194;9.894;2023-07-13T07:47:58;100434.00;;;18.79;69.59
13690;BME280;6917;52.194;9.894;2023-07-13T07:50:25;100430.59;;;18.86;68.89
13690;BME280;6917;52.194;9.894;2023-07-13T07:52:50;100433.72;;;18.84;69.02
13690;BME280;6917;52.194;9.894;2023-07-13T07:55:15;100439.69;;;18.86;69.23
13690;BME280;6917;52.194;9.894;2023-07-13T07:57:41;100428.47;;;18.79;68.29
13690;BME280;6917;52.194;9.894;2023-07-13T08:00:07;100425.66;;;18.76;69.14
13690;BME280;6917;52.194;9.894;2023-07-13T08:02:32;100435.25;;;18.82;69.49
13690;BME280;6917;52.194;9.894;2023-07-13T08:04:57;100430.22;;;18.87;69.44
13690;BME280;6917;52.194;9.894;2023-07-13T08:07:23;100433.91;;;18.95;69.34
13690;BME280;6917;52.194;9.894;2023-07-13T08:09:48;100438.03;;;19.05;68.65
13690;BME280;6917;52.194;9.894;2023-07-13T08:12:17;100435.69;;;19.07;68.53
13690;BME280;6917;52.194;9.894;2023-07-13T08:14:42;100443.28;;;19.10;68.83
13690;BME280;6917;52.194;9.894;2023-07-13T08:17:08;100438.84;;;19.05;69.11
13690;BME280;6917;52.194;9.894;2023-07-13T08:19:33;100427.34;;;19.03;68.62
13690;BME280;6917;52.194;9.894;2023-07-13T08:21:58;100435.84;;;19.14;68.99
13690;BME280;6917;52.194;9.894;2023-07-13T08:24:23;100448.00;;;19.32;68.81
13690;BME280;6917;52.194;9.894;2023-07-13T08:26:50;100437.91;;;19.43;67.45
13690;BME280;6917;52.194;9.894;2023-07-13T08:29:16;100443.56;;;19.50;66.67
13690;BME280;6917;52.194;9.894;2023-07-13T08:31:41;100438.00;;;19.50;66.13
13690;BME280;6917;52.194;9.894;2023-07-13T08:34:06;100450.09;;;19.61;67.24
13690;BME280;6917;52.194;9.894;2023-07-13T08:36:31;100439.44;;;19.64;67.12
13690;BME280;6917;52.194;9.894;2023-07-13T08:38:57;100434.16;;;19.55;65.87
13690;BME280;6917;52.194;9.894;2023-07-13T08:41:22;100434.22;;;19.58;66.19
13690;BME280;6917;52.194;9.894;2023-07-13T08:43:51;100448.56;;;19.64;67.44
13690;BME280;6917;52.194;9.894;2023-07-13T08:46:35;100439.00;;;19.61;66.18
13690;BME280;6917;52.194;9.894;2023-07-13T08:49:04;100428.34;;;19.64;66.58
13690;BME280;6917;52.194;9.894;2023-07-13T08:51:43;100435.50;;;19.65;66.11
13690;BME280;6917;52.194;9.894;2023-07-13T08:54:19;100438.44;;;19.75;65.89
13690;BME280;6917;52.194;9.894;2023-07-13T08:56:46;100442.97;;;19.87;65.68
13690;BME280;6917;52.194;9.894;2023-07-13T08:59:19;100451.53;;;20.05;65.76
13690;BME280;6917;52.194;9.894;2023-07-13T09:10:30;100465.69;;;20.90;64.49
13690;BME280;6917;52.194;9.894;2023-07-13T09:13:39;100451.28;;;20.80;63.25
13690;BME280;6917;52.194;9.894;2023-07-13T09:16:09;100447.03;;;20.90;63.38
13690;BME280;6917;52.194;9.894;2023-07-13T09:18:40;100458.59;;;20.96;63.61
13690;BME280;6917;52.194;9.894;2023-07-13T09:21:43;100447.09;;;20.60;63.10
13690;BME280;6917;52.194;9.894;2023-07-13T09:24:29;100455.59;;;20.74;63.86
13690;BME280;6917;52.194;9.894;2023-07-13T09:26:57;100462.47;;;20.84;63.92
13690;BME280;6917;52.194;9.894;2023-07-13T09:29:32;100452.78;;;20.71;63.12
13690;BME280;6917;52.194;9.894;2023-07-13T09:32:02;100442.63;;;20.52;62.69
13690;BME280;6917;52.194;9.894;2023-07-13T09:34:28;100441.47;;;20.53;63.07
13690;BME280;6917;52.194;9.894;2023-07-13T09:36:56;100455.34;;;20.53;64.23
13690;BME280;6917;52.194;9.894;2023-07-13T09:39:30;100449.72;;;20.46;64.17
13690;BME280;6917;52.194;9.894;2023-07-13T09:47:37;100434.31;;;20.52;64.14
13690;BME280;6917;52.194;9.894;2023-07-13T09:50:06;100452.00;;;20.70;63.26
13690;BME280;6917;52.194;9.894;2023-07-13T09:52:46;100442.28;;;20.91;62.89
13690;BME280;6917;52.194;9.894;2023-07-13T09:55:36;100445.16;;;20.98;62.44
13690;BME280;6917;52.194;9.894;2023-07-13T09:58:19;100454.13;;;21.25;62.83
13690;BME280;6917;52.194;9.894;2023-07-13T10:00:59;100449.50;;;21.39;62.21
13690;BME280;6917;52.194;9.894;2023-07-13T10:03:29;100444.03;;;21.54;61.33
13690;BME280;6917;52.194;9.894;2023-07-13T10:06:09;100438.19;;;21.69;59.78
13690;BME280;6917;52.194;9.894;2023-07-13T10:08:35;100444.22;;;21.79;60.99
13690;BME280;6917;52.194;9.894;2023-07-13T10:11:20;100435.97;;;21.89;59.06
13690;BME280;6917;52.194;9.894;2023-07-13T10:13:52;100446.47;;;22.14;59.01
13690;BME280;6917;52.194;9.894;2023-07-13T10:16:21;100431.59;;;21.92;58.46
13690;BME280;6917;52.194;9.894;2023-07-13T10:18:50;100438.47;;;22.05;58.49
13690;BME280;6917;52.194;9.894;2023-07-13T10:21:19;100440.13;;;22.20;57.99
13690;BME280;6917;52.194;9.894;2023-07-13T10:23:55;100448.94;;;22.37;59.44
13690;BME280;6917;52.194;9.894;2023-07-13T10:26:30;100456.94;;;22.45;59.51
13690;BME280;6917;52.194;9.894;2023-07-13T10:29:00;100435.41;;;22.35;57.65
13690;BME280;6917;52.194;9.894;2023-07-13T10:31:27;100434.16;;;22.22;56.86
13690;BME280;6917;52.194;9.894;2023-07-13T10:33:52;100437.00;;;22.33;57.70
13690;BME280;6917;52.194;9.894;2023-07-13T10:36:31;100425.25;;;21.98;56.95
13690;BME280;6917;52.194;9.894;2023-07-13T10:39:02;100436.81;;;22.01;58.18
13690;BME280;6917;52.194;9.894;2023-07-13T10:41:30;100440.59;;;22.30;57.16
13690;BME280;6917;52.194;9.894;2023-07-13T10:43:57;100429.47;;;22.40;57.48
13690;BME280;6917;52.194;9.894;2023-07-13T10:46:25;100436.63;;;22.41;55.86
13690;BME280;6917;52.194;9.894;2023-07-13T10:49:01;100435.09;;;22.51;56.08
13690;BME280;6917;52.194;9.894;2023-07-13T10:51:28;100425.81;;;22.25;56.03
13690;BME280;6917;52.194;9.894;2023-07-13T10:54:20;100432.19;;;22.22;56.38
13690;BME280;6917;52.194;9.894;2023-07-13T10:56:52;100443.09;;;22.67;56.84
13690;BME280;6917;52.194;9.894;2023-07-13T10:59:28;100419.59;;;22.68;54.64
13690;BME280;6917;52.194;9.894;2023-07-13T11:04:23;100427.13;;;22.53;55.60
13690;BME280;6917;52.194;9.894;2023-07-13T11:06:53;100425.88;;;22.29;56.04
13690;BME280;6917;52.194;9.894;2023-07-13T11:09:40;100423.03;;;22.15;56.29
13690;BME280;6917;52.194;9.894;2023-07-13T11:20:31;100426.78;;;22.62;54.31
13690;BME280;6917;52.194;9.894;2023-07-13T11:25:34;100407.53;;;22.24;54.84
13690;BME280;6917;52.194;9.894;2023-07-13T11:28:15;100417.75;;;22.03;54.93
13690;BME280;6917;52.194;9.894;2023-07-13T11:31:13;100414.53;;;21.97;55.62
13690;BME280;6917;52.194;9.894;2023-07-13T11:38:38;100409.97;;;22.40;55.15
13690;BME280;6917;52.194;9.894;2023-07-13T11:43:32;100400.47;;;22.55;54.38
13690;BME280;6917;52.194;9.894;2023-07-13T11:46:12;100416.84;;;22.75;54.51
13690;BME280;6917;52.194;9.894;2023-07-13T11:48:37;100409.28;;;22.79;54.85
13690;BME280;6917;52.194;9.894;2023-07-13T11:51:04;100409.38;;;23.04;53.37
13690;BME280;6917;52.194;9.894;2023-07-13T11:53:38;100417.31;;;23.09;54.72
13690;BME280;6917;52.194;9.894;2023-07-13T11:56:05;100415.34;;;23.38;53.47
13690;BME280;6917;52.194;9.894;2023-07-13T11:58:31;100401.38;;;23.27;53.26
13690;BME280;6917;52.194;9.894;2023-07-13T12:00:59;100387.06;;;22.93;53.62
13690;BME280;6917;52.194;9.894;2023-07-13T12:03:27;100411.75;;;23.20;55.04
13690;BME280;6917;52.194;9.894;2023-07-13T12:06:05;100424.09;;;23.58;54.25
13690;BME280;6917;52.194;9.894;2023-07-13T12:08:37;100404.56;;;23.76;52.43
13690;BME280;6917;52.194;9.894;2023-07-13T12:11:06;100404.94;;;23.88;52.61
13690;BME280;6917;52.194;9.894;2023-07-13T12:13:38;100399.34;;;23.85;51.48
13690;BME280;6917;52.194;9.894;2023-07-13T12:16:35;100391.81;;;23.71;51.58
13690;BME280;6917;52.194;9.894;2023-07-13T12:19:02;100388.66;;;23.26;51.71
13690;BME280;6917;52.194;9.894;2023-07-13T12:21:38;100385.88;;;23.30;52.29
13690;BME280;6917;52.194;9.894;2023-07-13T12:24:04;100383.09;;;23.01;52.29
13690;BME280;6917;52.194;9.894;2023-07-13T12:26:31;100392.63;;;23.36;51.70
13690;BME280;6917;52.194;9.894;2023-07-13T12:29:00;100385.44;;;23.42;52.52
13690;BME280;6917;52.194;9.894;2023-07-13T12:31:47;100400.19;;;23.25;54.03
13690;BME280;6917;52.194;9.894;2023-07-13T12:34:21;100391.44;;;23.23;54.65
13690;BME280;6917;52.194;9.894;2023-07-13T12:37:00;100388.25;;;22.92;53.22
13690;BME280;6917;52.194;9.894;2023-07-13T12:39:45;100396.19;;;22.83;54.46
13690;BME280;6917;52.194;9.894;2023-07-13T12:44:46;100414.94;;;23.36;54.33
13690;BME280;6917;52.194;9.894;2023-07-13T12:47:14;100398.22;;;23.36;52.48
13690;BME280;6917;52.194;9.894;2023-07-13T12:49:43;100378.69;;;23.22;51.95
13690;BME280;6917;52.194;9.894;2023-07-13T12:52:19;100387.88;;;23.08;52.80
13690;BME280;6917;52.194;9.894;2023-07-13T12:54:56;100395.03;;;23.27;52.86
13690;BME280;6917;52.194;9.894;2023-07-13T12:57:23;100405.75;;;23.57;53.29
13690;BME280;6917;52.194;9.894;2023-07-13T12:59:52;100403.00;;;23.64;52.08
13690;BME280;6917;52.194;9.894;2023-07-13T13:02:32;100388.63;;;23.65;51.63
13690;BME280;6917;52.194;9.894;2023-07-13T13:05:00;100383.09;;;23.58;50.79
13690;BME280;6917;52.194;9.894;2023-07-13T13:07:26;100392.63;;;23.75;50.55
13690;BME280;6917;52.194;9.894;2023-07-13T13:09:52;100390.16;;;23.91;50.99
13690;BME280;6917;52.194;9.894;2023-07-13T13:12:22;100389.69;;;24.11;50.63
13690;BME280;6917;52.194;9.894;2023-07-13T13:14:47;100394.47;;;24.14;50.89
13690;BME280;6917;52.194;9.894;2023-07-13T13:17:24;100380.97;;;24.01;49.18
13690;BME280;6917;52.194;9.894;2023-07-13T13:19:53;100373.91;;;23.61;48.64
13690;BME280;6917;52.194;9.894;2023-07-13T13:22:19;100374.28;;;23.42;49.56
13690;BME280;6917;52.194;9.894;2023-07-13T13:24:45;100391.81;;;23.57;51.68
13690;BME280;6917;52.194;9.894;2023-07-13T13:27:16;100379.47;;;23.54;51.17
13690;BME280;6917;52.194;9.894;2023-07-13T13:29:42;100388.66;;;23.48;50.05
13690;BME280;6917;52.194;9.894;2023-07-13T13:32:13;100397.81;;;23.66;51.17
13690;BME280;6917;52.194;9.894;2023-07-13T13:34:39;100405.34;;;23.80;50.28
13690;BME280;6917;52.194;9.894;2023-07-13T13:37:17;100399.66;;;24.19;49.06
13690;BME280;6917;52.194;9.894;2023-07-13T13:39:43;100405.63;;;24.21;49.27
13690;BME280;6917;52.194;9.894;2023-07-13T13:42:09;100389.44;;;23.62;49.64
13690;BME280;6917;52.194;9.894;2023-07-13T13:44:35;100390.25;;;23.17;50.04